Terminal Aerodrome Forecast
Issued by NWS

Home | Current Version | Previous Version | Graphics & Text | Print | Product List | Glossary On
Versions: 1 2 3 4 5 6 7 8 9 10 11 12 13 14 15 16 17 18 19
000
FTUS43 KBIS 251000 AAA
TAFMOT
TAF AMD
KMOT 251001Z 2510/2606 07007KT 3SM BR SCT004 BKN100
     FM251300 07008KT P6SM BKN004 OVC010
     FM251800 10010KT P6SM BKN020=

USA.gov is the U.S. government's official web portal to all federal, state and local government web resources and services.